7Y2 weather

Public forecast

Using degrees Fahrenheit for public forecast. Weather courtesy of forecast.io.

Closest aviation weather report (METAR) to Thompsonville Airport

Closest report is Frankfort Dow Memorial Field, 11.6 nm (21.6 km) NW. Retrieved 2020/08/14 01:35 UTC (7 minutes ago):

KFKS 140135Z AUTO 00000KT 10SM SCT060 22/18 A3009 RMK AO2 T02210184

Closest aviation forecast (TAF) to Thompsonville Airport

Closest forecast is Manistee Co Blacker Airport, 18.7 nm (34.7 km) SW. Retrieved 2020-08-14 00:21 UTC (1 hour ago):

TAF KMBL 132320Z 1400/1424 VRB03KT P6SM SCT060